sensor_id;sensor_type;location;lat;lon;timestamp;pressure;altitude;pressure_sealevel;temperature;humidity
62548;BME280;48602;45.192;5.722;2022-07-06T00:01:49;99564.56;;;22.55;43.56
62548;BME280;48602;45.192;5.722;2022-07-06T00:04:17;99565.91;;;22.50;42.54
62548;BME280;48602;45.192;5.722;2022-07-06T00:06:43;99571.91;;;22.42;43.15
62548;BME280;48602;45.192;5.722;2022-07-06T00:09:08;99567.03;;;22.36;43.27
62548;BME280;48602;45.192;5.722;2022-07-06T00:11:34;99578.41;;;22.28;43.67
62548;BME280;48602;45.192;5.722;2022-07-06T00:13:59;99574.63;;;22.20;43.42
62548;BME280;48602;45.192;5.722;2022-07-06T00:16:25;99572.44;;;22.14;43.98
62548;BME280;48602;45.192;5.722;2022-07-06T00:18:50;99584.41;;;22.10;44.43
62548;BME280;48602;45.192;5.722;2022-07-06T00:21:17;99569.53;;;22.06;44.40
62548;BME280;48602;45.192;5.722;2022-07-06T00:23:43;99572.69;;;22.00;44.16
62548;BME280;48602;45.192;5.722;2022-07-06T00:26:08;99574.72;;;21.96;45.00
62548;BME280;48602;45.192;5.722;2022-07-06T00:28:34;99566.19;;;21.91;44.65
62548;BME280;48602;45.192;5.722;2022-07-06T00:30:59;99559.34;;;21.87;44.62
62548;BME280;48602;45.192;5.722;2022-07-06T00:33:25;99567.41;;;21.87;44.82
62548;BME280;48602;45.192;5.722;2022-07-06T00:35:50;99562.16;;;21.85;44.74
62548;BME280;48602;45.192;5.722;2022-07-06T00:38:16;99568.50;;;21.84;45.46
62548;BME280;48602;45.192;5.722;2022-07-06T00:40:41;99560.56;;;21.83;45.15
62548;BME280;48602;45.192;5.722;2022-07-06T00:43:07;99559.94;;;21.79;44.86
62548;BME280;48602;45.192;5.722;2022-07-06T00:45:33;99568.16;;;21.78;45.55
62548;BME280;48602;45.192;5.722;2022-07-06T00:47:58;99576.44;;;21.75;45.64
62548;BME280;48602;45.192;5.722;2022-07-06T00:50:24;99569.59;;;21.71;45.35
62548;BME280;48602;45.192;5.722;2022-07-06T00:52:55;99571.78;;;21.66;45.61
62548;BME280;48602;45.192;5.722;2022-07-06T00:55:23;99571.31;;;21.61;45.87
62548;BME280;48602;45.192;5.722;2022-07-06T00:57:49;99577.03;;;21.56;45.55
62548;BME280;48602;45.192;5.722;2022-07-06T01:00:17;99578.00;;;21.55;46.31
62548;BME280;48602;45.192;5.722;2022-07-06T01:02:43;99573.84;;;21.51;46.32
62548;BME280;48602;45.192;5.722;2022-07-06T01:05:11;99577.63;;;21.48;45.95
62548;BME280;48602;45.192;5.722;2022-07-06T01:07:37;99572.47;;;21.45;46.14
62548;BME280;48602;45.192;5.722;2022-07-06T01:10:04;99572.63;;;21.44;46.32
62548;BME280;48602;45.192;5.722;2022-07-06T01:12:31;99580.78;;;21.42;46.27
62548;BME280;48602;45.192;5.722;2022-07-06T01:14:57;99586.28;;;21.41;46.32
62548;BME280;48602;45.192;5.722;2022-07-06T01:17:23;99583.94;;;21.36;46.85
62548;BME280;48602;45.192;5.722;2022-07-06T01:19:49;99586.63;;;21.36;46.36
62548;BME280;48602;45.192;5.722;2022-07-06T01:22:14;99584.78;;;21.37;46.63
62548;BME280;48602;45.192;5.722;2022-07-06T01:24:40;99583.06;;;21.36;46.30
62548;BME280;48602;45.192;5.722;2022-07-06T01:27:06;99588.31;;;21.37;46.87
62548;BME280;48602;45.192;5.722;2022-07-06T01:29:33;99584.06;;;21.35;46.81
62548;BME280;48602;45.192;5.722;2022-07-06T01:31:59;99583.41;;;21.31;47.28
62548;BME280;48602;45.192;5.722;2022-07-06T01:34:24;99590.13;;;21.26;47.04
62548;BME280;48602;45.192;5.722;2022-07-06T01:36:49;99586.16;;;21.18;47.29
62548;BME280;48602;45.192;5.722;2022-07-06T01:39:15;99579.59;;;21.11;47.29
62548;BME280;48602;45.192;5.722;2022-07-06T01:41:40;99581.00;;;21.04;47.79
62548;BME280;48602;45.192;5.722;2022-07-06T01:44:06;99578.78;;;20.98;47.35
62548;BME280;48602;45.192;5.722;2022-07-06T01:46:32;99576.31;;;20.95;47.76
62548;BME280;48602;45.192;5.722;2022-07-06T01:48:57;99576.69;;;20.90;47.93
62548;BME280;48602;45.192;5.722;2022-07-06T01:51:23;99578.75;;;20.87;48.18
62548;BME280;48602;45.192;5.722;2022-07-06T01:53:50;99581.00;;;20.80;48.57
62548;BME280;48602;45.192;5.722;2022-07-06T01:56:15;99585.03;;;20.75;48.83
62548;BME280;48602;45.192;5.722;2022-07-06T01:58:42;99571.97;;;20.70;48.53
62548;BME280;48602;45.192;5.722;2022-07-06T02:01:09;99580.34;;;20.66;49.33
62548;BME280;48602;45.192;5.722;2022-07-06T02:03:35;99586.28;;;20.58;49.64
62548;BME280;48602;45.192;5.722;2022-07-06T02:06:01;99582.09;;;20.54;49.44
62548;BME280;48602;45.192;5.722;2022-07-06T02:08:26;99581.56;;;20.49;49.00
62548;BME280;48602;45.192;5.722;2022-07-06T02:10:52;99590.78;;;20.45;49.75
62548;BME280;48602;45.192;5.722;2022-07-06T02:13:17;99582.16;;;20.41;49.50
62548;BME280;48602;45.192;5.722;2022-07-06T02:15:42;99586.75;;;20.39;50.02
62548;BME280;48602;45.192;5.722;2022-07-06T02:18:08;99581.63;;;20.36;49.77
62548;BME280;48602;45.192;5.722;2022-07-06T02:20:33;99588.03;;;20.34;49.94
62548;BME280;48602;45.192;5.722;2022-07-06T02:22:58;99587.28;;;20.32;49.75
62548;BME280;48602;45.192;5.722;2022-07-06T02:25:24;99586.41;;;20.31;49.96
62548;BME280;48602;45.192;5.722;2022-07-06T02:27:49;99590.16;;;20.29;50.05
62548;BME280;48602;45.192;5.722;2022-07-06T02:30:15;99592.13;;;20.27;49.96
62548;BME280;48602;45.192;5.722;2022-07-06T02:32:40;99590.63;;;20.23;50.17
62548;BME280;48602;45.192;5.722;2022-07-06T02:35:06;99597.06;;;20.20;50.09
62548;BME280;48602;45.192;5.722;2022-07-06T02:37:31;99599.09;;;20.16;50.46
62548;BME280;48602;45.192;5.722;2022-07-06T02:39:56;99603.81;;;20.13;50.55
62548;BME280;48602;45.192;5.722;2022-07-06T02:42:22;99596.88;;;20.10;50.43
62548;BME280;48602;45.192;5.722;2022-07-06T02:44:47;99599.66;;;20.09;51.01
62548;BME280;48602;45.192;5.722;2022-07-06T02:47:13;99597.31;;;20.04;50.52
62548;BME280;48602;45.192;5.722;2022-07-06T02:49:38;99597.41;;;20.03;50.35
62548;BME280;48602;45.192;5.722;2022-07-06T02:52:03;99597.63;;;20.00;50.96
62548;BME280;48602;45.192;5.722;2022-07-06T02:54:29;99613.03;;;19.96;50.84
62548;BME280;48602;45.192;5.722;2022-07-06T02:56:54;99611.31;;;19.95;50.93
62548;BME280;48602;45.192;5.722;2022-07-06T02:59:20;99616.06;;;19.92;50.80
62548;BME280;48602;45.192;5.722;2022-07-06T03:01:45;99623.25;;;19.91;51.24
62548;BME280;48602;45.192;5.722;2022-07-06T03:04:11;99609.97;;;19.90;51.05
62548;BME280;48602;45.192;5.722;2022-07-06T03:06:36;99618.94;;;19.89;51.18
62548;BME280;48602;45.192;5.722;2022-07-06T03:09:02;99620.88;;;19.86;51.73
62548;BME280;48602;45.192;5.722;2022-07-06T03:11:28;99618.50;;;19.82;51.71
62548;BME280;48602;45.192;5.722;2022-07-06T03:13:53;99617.88;;;19.78;51.62
62548;BME280;48602;45.192;5.722;2022-07-06T03:16:18;99619.81;;;19.76;51.86
62548;BME280;48602;45.192;5.722;2022-07-06T03:18:44;99620.88;;;19.74;51.55
62548;BME280;48602;45.192;5.722;2022-07-06T03:21:09;99623.66;;;19.72;51.56
62548;BME280;48602;45.192;5.722;2022-07-06T03:23:34;99627.31;;;19.71;51.56
62548;BME280;48602;45.192;5.722;2022-07-06T03:26:00;99633.63;;;19.70;51.99
62548;BME280;48602;45.192;5.722;2022-07-06T03:28:25;99624.94;;;19.67;52.06
62548;BME280;48602;45.192;5.722;2022-07-06T03:30:51;99628.69;;;19.64;51.85
62548;BME280;48602;45.192;5.722;2022-07-06T03:33:16;99627.91;;;19.62;51.24
62548;BME280;48602;45.192;5.722;2022-07-06T03:35:41;99633.28;;;19.62;52.01
62548;BME280;48602;45.192;5.722;2022-07-06T03:38:07;99628.16;;;19.59;51.98
62548;BME280;48602;45.192;5.722;2022-07-06T03:40:33;99634.47;;;19.58;51.97
62548;BME280;48602;45.192;5.722;2022-07-06T03:42:58;99638.84;;;19.59;52.00
62548;BME280;48602;45.192;5.722;2022-07-06T03:45:24;99639.81;;;19.58;52.43
62548;BME280;48602;45.192;5.722;2022-07-06T03:47:52;99637.34;;;19.55;51.99
62548;BME280;48602;45.192;5.722;2022-07-06T03:50:18;99638.22;;;19.56;52.47
62548;BME280;48602;45.192;5.722;2022-07-06T03:52:43;99638.22;;;19.56;52.19
62548;BME280;48602;45.192;5.722;2022-07-06T03:55:10;99638.31;;;19.54;52.20
62548;BME280;48602;45.192;5.722;2022-07-06T03:57:36;99639.38;;;19.51;52.21
62548;BME280;48602;45.192;5.722;2022-07-06T04:00:03;99634.97;;;19.50;52.66
62548;BME280;48602;45.192;5.722;2022-07-06T04:02:28;99635.84;;;19.51;52.25
62548;BME280;48602;45.192;5.722;2022-07-06T04:04:54;99636.69;;;19.51;52.29
62548;BME280;48602;45.192;5.722;2022-07-06T04:07:19;99637.72;;;19.49;52.46
62548;BME280;48602;45.192;5.722;2022-07-06T04:09:44;99643.00;;;19.50;53.03
62548;BME280;48602;45.192;5.722;2022-07-06T04:12:10;99640.50;;;19.47;52.27
62548;BME280;48602;45.192;5.722;2022-07-06T04:14:35;99638.03;;;19.44;52.32
62548;BME280;48602;45.192;5.722;2022-07-06T04:17:01;99640.09;;;19.41;53.11
62548;BME280;48602;45.192;5.722;2022-07-06T04:19:46;99648.31;;;19.38;53.16
62548;BME280;48602;45.192;5.722;2022-07-06T04:22:11;99649.38;;;19.35;53.40
62548;BME280;48602;45.192;5.722;2022-07-06T04:24:37;99638.22;;;19.29;53.23
62548;BME280;48602;45.192;5.722;2022-07-06T04:27:02;99645.63;;;19.25;54.26
62548;BME280;48602;45.192;5.722;2022-07-06T04:29:28;99644.00;;;19.23;53.74
62548;BME280;48602;45.192;5.722;2022-07-06T04:31:53;99642.28;;;19.22;53.76
62548;BME280;48602;45.192;5.722;2022-07-06T04:34:18;99637.13;;;19.18;54.12
62548;BME280;48602;45.192;5.722;2022-07-06T04:36:44;99634.47;;;19.18;53.72
62548;BME280;48602;45.192;5.722;2022-07-06T04:39:09;99635.41;;;19.17;53.81
62548;BME280;48602;45.192;5.722;2022-07-06T04:41:35;99646.97;;;19.18;54.42
62548;BME280;48602;45.192;5.722;2022-07-06T04:44:00;99647.06;;;19.16;53.62
62548;BME280;48602;45.192;5.722;2022-07-06T04:46:25;99649.75;;;19.16;54.28
62548;BME280;48602;45.192;5.722;2022-07-06T04:48:51;99640.22;;;19.12;54.01
62548;BME280;48602;45.192;5.722;2022-07-06T04:51:16;99641.16;;;19.11;54.64
62548;BME280;48602;45.192;5.722;2022-07-06T04:53:42;99640.22;;;19.12;54.09
62548;BME280;48602;45.192;5.722;2022-07-06T04:56:07;99633.03;;;19.13;54.24
62548;BME280;48602;45.192;5.722;2022-07-06T04:58:33;99638.28;;;19.14;53.88
62548;BME280;48602;45.192;5.722;2022-07-06T05:00:58;99640.00;;;19.15;54.08
62548;BME280;48602;45.192;5.722;2022-07-06T05:03:23;99633.69;;;19.16;54.41
62548;BME280;48602;45.192;5.722;2022-07-06T05:05:49;99639.91;;;19.17;54.41
62548;BME280;48602;45.192;5.722;2022-07-06T05:08:14;99640.66;;;19.19;53.80
62548;BME280;48602;45.192;5.722;2022-07-06T05:10:40;99636.06;;;19.21;53.97
62548;BME280;48602;45.192;5.722;2022-07-06T05:13:05;99633.31;;;19.23;54.34
62548;BME280;48602;45.192;5.722;2022-07-06T05:15:30;99637.50;;;19.27;54.18
62548;BME280;48602;45.192;5.722;2022-07-06T05:17:56;99639.41;;;19.25;53.96
62548;BME280;48602;45.192;5.722;2022-07-06T05:20:21;99644.00;;;19.23;54.17
62548;BME280;48602;45.192;5.722;2022-07-06T05:22:46;99644.75;;;19.25;54.79
62548;BME280;48602;45.192;5.722;2022-07-06T05:25:12;99638.22;;;19.29;54.45
62548;BME280;48602;45.192;5.722;2022-07-06T05:27:37;99636.97;;;19.34;54.85
62548;BME280;48602;45.192;5.722;2022-07-06T05:30:03;99629.91;;;19.33;53.92
62548;BME280;48602;45.192;5.722;2022-07-06T05:32:29;99631.50;;;19.36;54.29
62548;BME280;48602;45.192;5.722;2022-07-06T05:34:54;99627.00;;;19.36;54.18
62548;BME280;48602;45.192;5.722;2022-07-06T05:37:19;99628.84;;;19.36;54.84
62548;BME280;48602;45.192;5.722;2022-07-06T05:39:45;99629.03;;;19.33;54.06
62548;BME280;48602;45.192;5.722;2022-07-06T05:42:12;99628.06;;;19.34;54.59
62548;BME280;48602;45.192;5.722;2022-07-06T05:44:37;99630.53;;;19.37;54.77
62548;BME280;48602;45.192;5.722;2022-07-06T05:47:03;99635.78;;;19.38;54.84
62548;BME280;48602;45.192;5.722;2022-07-06T05:49:47;99638.47;;;19.38;54.98
62548;BME280;48602;45.192;5.722;2022-07-06T05:52:31;99640.47;;;19.35;54.36
62548;BME280;48602;45.192;5.722;2022-07-06T05:54:57;99630.09;;;19.30;54.56
62548;BME280;48602;45.192;5.722;2022-07-06T05:57:22;99633.19;;;19.24;54.85
62548;BME280;48602;45.192;5.722;2022-07-06T05:59:47;99627.41;;;19.17;54.47
62548;BME280;48602;45.192;5.722;2022-07-06T06:02:13;99639.81;;;19.18;54.84
62548;BME280;48602;45.192;5.722;2022-07-06T06:04:38;99641.53;;;19.20;54.98
62548;BME280;48602;45.192;5.722;2022-07-06T06:07:04;99653.06;;;19.20;54.71
62548;BME280;48602;45.192;5.722;2022-07-06T06:09:29;99651.25;;;19.21;55.12
62548;BME280;48602;45.192;5.722;2022-07-06T06:11:54;99655.66;;;19.22;54.35
62548;BME280;48602;45.192;5.722;2022-07-06T06:14:20;99654.59;;;19.24;54.82
62548;BME280;48602;45.192;5.722;2022-07-06T06:16:45;99657.78;;;19.29;54.16
62548;BME280;48602;45.192;5.722;2022-07-06T06:19:10;99668.09;;;19.35;54.60
62548;BME280;48602;45.192;5.722;2022-07-06T06:21:36;99677.53;;;19.41;53.78
62548;BME280;48602;45.192;5.722;2022-07-06T06:24:01;99674.63;;;19.44;53.63
62548;BME280;48602;45.192;5.722;2022-07-06T06:26:26;99686.94;;;19.46;53.33
62548;BME280;48602;45.192;5.722;2022-07-06T06:28:52;99687.63;;;19.50;54.11
62548;BME280;48602;45.192;5.722;2022-07-06T06:31:17;99700.69;;;19.55;53.41
62548;BME280;48602;45.192;5.722;2022-07-06T06:33:42;99699.41;;;19.60;53.24
62548;BME280;48602;45.192;5.722;2022-07-06T06:36:08;99700.25;;;19.61;53.24
62548;BME280;48602;45.192;5.722;2022-07-06T06:38:33;99698.31;;;19.63;53.17
62548;BME280;48602;45.192;5.722;2022-07-06T06:41:00;99699.84;;;19.67;52.73
62548;BME280;48602;45.192;5.722;2022-07-06T06:43:26;99704.03;;;19.71;52.97
62548;BME280;48602;45.192;5.722;2022-07-06T06:45:52;99700.81;;;19.78;53.07
62548;BME280;48602;45.192;5.722;2022-07-06T06:48:17;99710.03;;;19.87;52.87
62548;BME280;48602;45.192;5.722;2022-07-06T06:50:44;99710.25;;;19.97;53.00
62548;BME280;48602;45.192;5.722;2022-07-06T06:53:10;99709.84;;;20.03;52.18
62548;BME280;48602;45.192;5.722;2022-07-06T06:55:35;99709.53;;;20.07;52.51
62548;BME280;48602;45.192;5.722;2022-07-06T06:58:01;99704.06;;;20.09;51.95
62548;BME280;48602;45.192;5.722;2022-07-06T07:00:26;99691.31;;;20.12;52.09
62548;BME280;48602;45.192;5.722;2022-07-06T07:02:52;99695.28;;;20.19;51.90
62548;BME280;48602;45.192;5.722;2022-07-06T07:05:17;99698.25;;;20.28;52.58
62548;BME280;48602;45.192;5.722;2022-07-06T07:07:43;99698.78;;;20.33;52.64
62548;BME280;48602;45.192;5.722;2022-07-06T07:10:08;99699.47;;;20.36;52.09
62548;BME280;48602;45.192;5.722;2022-07-06T07:12:34;99693.16;;;20.37;52.13
62548;BME280;48602;45.192;5.722;2022-07-06T07:15:00;99691.13;;;20.41;51.64
62548;BME280;48602;45.192;5.722;2022-07-06T07:17:26;99695.25;;;20.45;51.81
62548;BME280;48602;45.192;5.722;2022-07-06T07:19:51;99686.03;;;20.49;51.93
62548;BME280;48602;45.192;5.722;2022-07-06T07:22:17;99697.28;;;20.54;51.94
62548;BME280;48602;45.192;5.722;2022-07-06T07:24:42;99710.97;;;20.62;51.72
62548;BME280;48602;45.192;5.722;2022-07-06T07:27:08;99697.91;;;20.70;51.27
62548;BME280;48602;45.192;5.722;2022-07-06T07:29:33;99704.19;;;20.82;51.97
62548;BME280;48602;45.192;5.722;2022-07-06T07:31:58;99700.75;;;20.93;51.01
62548;BME280;48602;45.192;5.722;2022-07-06T07:34:24;99688.69;;;20.98;50.59
62548;BME280;48602;45.192;5.722;2022-07-06T07:36:49;99698.75;;;21.07;50.38
62548;BME280;48602;45.192;5.722;2022-07-06T07:39:15;99694.63;;;21.14;50.82
62548;BME280;48602;45.192;5.722;2022-07-06T07:41:40;99694.97;;;21.22;49.84
62548;BME280;48602;45.192;5.722;2022-07-06T07:44:05;99691.78;;;21.29;50.11
62548;BME280;48602;45.192;5.722;2022-07-06T07:46:31;99696.72;;;21.35;49.66
62548;BME280;48602;45.192;5.722;2022-07-06T07:48:56;99690.78;;;21.42;49.52
62548;BME280;48602;45.192;5.722;2022-07-06T07:51:22;99688.34;;;21.50;49.21
62548;BME280;48602;45.192;5.722;2022-07-06T07:53:47;99685.72;;;21.62;48.97
62548;BME280;48602;45.192;5.722;2022-07-06T07:56:12;99676.94;;;21.71;49.03
62548;BME280;48602;45.192;5.722;2022-07-06T07:58:38;99678.78;;;21.81;48.30
62548;BME280;48602;45.192;5.722;2022-07-06T08:01:03;99679.69;;;21.93;47.90
62548;BME280;48602;45.192;5.722;2022-07-06T08:03:29;99684.25;;;22.04;48.21
62548;BME280;48602;45.192;5.722;2022-07-06T08:05:55;99667.28;;;22.14;47.92
62548;BME280;48602;45.192;5.722;2022-07-06T08:08:20;99671.72;;;22.26;47.68
62548;BME280;48602;45.192;5.722;2022-07-06T08:10:46;99670.09;;;22.35;47.19
62548;BME280;48602;45.192;5.722;2022-07-06T08:13:12;99674.88;;;22.43;46.54
62548;BME280;48602;45.192;5.722;2022-07-06T08:15:39;99678.53;;;22.53;45.85
62548;BME280;48602;45.192;5.722;2022-07-06T08:18:05;99669.84;;;22.60;45.94
62548;BME280;48602;45.192;5.722;2022-07-06T08:20:30;99666.53;;;22.68;46.25
62548;BME280;48602;45.192;5.722;2022-07-06T08:22:56;99658.09;;;22.73;46.05
62548;BME280;48602;45.192;5.722;2022-07-06T08:25:21;99653.44;;;22.75;45.66
62548;BME280;48602;45.192;5.722;2022-07-06T08:27:47;99662.00;;;22.80;46.16
62548;BME280;48602;45.192;5.722;2022-07-06T08:30:12;99657.84;;;22.87;46.22
62548;BME280;48602;45.192;5.722;2022-07-06T08:32:42;99653.56;;;22.95;46.23
62548;BME280;48602;45.192;5.722;2022-07-06T08:35:08;99645.94;;;23.01;45.68
62548;BME280;48602;45.192;5.722;2022-07-06T08:37:34;99634.09;;;23.03;45.60
62548;BME280;48602;45.192;5.722;2022-07-06T08:40:00;99638.22;;;23.07;46.13
62548;BME280;48602;45.192;5.722;2022-07-06T08:42:29;99634.03;;;23.14;46.00
62548;BME280;48602;45.192;5.722;2022-07-06T08:44:58;99623.38;;;23.24;45.29
62548;BME280;48602;45.192;5.722;2022-07-06T08:47:26;99640.69;;;23.31;45.95
62548;BME280;48602;45.192;5.722;2022-07-06T08:49:53;99616.94;;;23.36;45.32
62548;BME280;48602;45.192;5.722;2022-07-06T08:52:19;99616.69;;;23.39;45.33
62548;BME280;48602;45.192;5.722;2022-07-06T08:54:45;99622.41;;;23.46;45.22
62548;BME280;48602;45.192;5.722;2022-07-06T08:57:11;99624.69;;;23.50;45.59
62548;BME280;48602;45.192;5.722;2022-07-06T08:59:38;99629.72;;;23.55;45.63
62548;BME280;48602;45.192;5.722;2022-07-06T09:02:03;99619.53;;;23.58;45.54
62548;BME280;48602;45.192;5.722;2022-07-06T09:04:29;99618.31;;;23.62;45.08
62548;BME280;48602;45.192;5.722;2022-07-06T09:06:57;99610.53;;;23.69;44.75
62548;BME280;48602;45.192;5.722;2022-07-06T09:09:24;99608.19;;;23.76;44.92
62548;BME280;48602;45.192;5.722;2022-07-06T09:11:49;99675.81;;;23.82;44.59
62548;BME280;48602;45.192;5.722;2022-07-06T09:14:15;99614.31;;;23.87;44.83
62548;BME280;48602;45.192;5.722;2022-07-06T09:16:41;99627.41;;;23.92;44.42
62548;BME280;48602;45.192;5.722;2022-07-06T09:19:07;99617.91;;;23.97;43.95
62548;BME280;48602;45.192;5.722;2022-07-06T09:21:33;99622.78;;;24.04;43.58
62548;BME280;48602;45.192;5.722;2022-07-06T09:24:06;99631.19;;;24.10;43.29
62548;BME280;48602;45.192;5.722;2022-07-06T09:26:33;99619.97;;;24.15;43.86
62548;BME280;48602;45.192;5.722;2022-07-06T09:28:59;99632.69;;;24.24;43.26
62548;BME280;48602;45.192;5.722;2022-07-06T09:31:25;99632.00;;;24.31;43.11
62548;BME280;48602;45.192;5.722;2022-07-06T09:33:55;99630.72;;;24.35;42.91
62548;BME280;48602;45.192;5.722;2022-07-06T09:41:44;99618.63;;;24.60;42.02
62548;BME280;48602;45.192;5.722;2022-07-06T09:44:09;99605.72;;;24.74;41.58
62548;BME280;48602;45.192;5.722;2022-07-06T09:46:42;99636.53;;;24.81;41.28
62548;BME280;48602;45.192;5.722;2022-07-06T09:49:08;99605.59;;;24.85;41.58
62548;BME280;48602;45.192;5.722;2022-07-06T09:51:37;99613.28;;;24.89;41.27
62548;BME280;48602;45.192;5.722;2022-07-06T09:54:07;99613.84;;;24.93;40.67
62548;BME280;48602;45.192;5.722;2022-07-06T09:56:41;99625.09;;;24.98;41.19
62548;BME280;48602;45.192;5.722;2022-07-06T09:59:15;99619.53;;;24.99;40.37
62548;BME280;48602;45.192;5.722;2022-07-06T10:01:41;99613.16;;;25.00;40.17
62548;BME280;48602;45.192;5.722;2022-07-06T10:04:09;99600.97;;;25.06;40.67
62548;BME280;48602;45.192;5.722;2022-07-06T10:06:35;99599.69;;;25.10;40.48
62548;BME280;48602;45.192;5.722;2022-07-06T10:09:04;99592.00;;;25.15;40.93
62548;BME280;48602;45.192;5.722;2022-07-06T10:11:34;99597.56;;;25.23;40.45
62548;BME280;48602;45.192;5.722;2022-07-06T10:14:01;99599.81;;;25.28;40.32
62548;BME280;48602;45.192;5.722;2022-07-06T10:16:28;99594.56;;;25.36;40.09
62548;BME280;48602;45.192;5.722;2022-07-06T10:18:54;99600.09;;;25.44;39.68
62548;BME280;48602;45.192;5.722;2022-07-06T10:21:24;99602.91;;;25.52;39.44
62548;BME280;48602;45.192;5.722;2022-07-06T10:23:50;99582.72;;;25.56;39.27
62548;BME280;48602;45.192;5.722;2022-07-06T10:26:17;99607.34;;;25.63;39.00
62548;BME280;48602;45.192;5.722;2022-07-06T10:28:44;99601.75;;;25.74;38.25
62548;BME280;48602;45.192;5.722;2022-07-06T10:31:13;99648.97;;;25.80;37.90
62548;BME280;48602;45.192;5.722;2022-07-06T10:33:40;99580.25;;;25.82;37.91
62548;BME280;48602;45.192;5.722;2022-07-06T10:36:07;99615.81;;;25.87;38.36
62548;BME280;48602;45.192;5.722;2022-07-06T10:38:34;99588.50;;;25.90;38.54
62548;BME280;48602;45.192;5.722;2022-07-06T10:41:09;99586.06;;;25.97;38.75
62548;BME280;48602;45.192;5.722;2022-07-06T10:43:41;99596.56;;;26.00;38.33
62548;BME280;48602;45.192;5.722;2022-07-06T10:46:08;99600.44;;;25.97;38.39
62548;BME280;48602;45.192;5.722;2022-07-06T10:48:39;99585.22;;;25.96;39.02
62548;BME280;48602;45.192;5.722;2022-07-06T10:51:06;99600.53;;;26.05;38.52
62548;BME280;48602;45.192;5.722;2022-07-06T10:53:34;99603.78;;;26.09;38.35
62548;BME280;48602;45.192;5.722;2022-07-06T10:56:02;99617.44;;;26.07;38.79
62548;BME280;48602;45.192;5.722;2022-07-06T10:58:47;99623.00;;;26.06;38.44
62548;BME280;48602;45.192;5.722;2022-07-06T11:01:14;99598.69;;;26.06;38.99
62548;BME280;48602;45.192;5.722;2022-07-06T11:03:45;99585.88;;;26.08;38.70
62548;BME280;48602;45.192;5.722;2022-07-06T11:06:17;99581.88;;;26.12;38.81
62548;BME280;48602;45.192;5.722;2022-07-06T11:11:18;99577.00;;;26.16;38.32
62548;BME280;48602;45.192;5.722;2022-07-06T11:14:13;99590.63;;;26.24;38.41
62548;BME280;48602;45.192;5.722;2022-07-06T11:19:19;99560.56;;;26.36;39.01
62548;BME280;48602;45.192;5.722;2022-07-06T11:21:57;99576.50;;;26.39;38.43
62548;BME280;48602;45.192;5.722;2022-07-06T11:24:30;99581.19;;;26.37;38.80
62548;BME280;48602;45.192;5.722;2022-07-06T11:26:57;99597.34;;;26.29;38.81
62548;BME280;48602;45.192;5.722;2022-07-06T11:29:24;99553.34;;;26.27;39.06
62548;BME280;48602;45.192;5.722;2022-07-06T11:31:52;99558.50;;;26.30;39.03
62548;BME280;48602;45.192;5.722;2022-07-06T11:34:29;99609.41;;;26.25;39.45
62548;BME280;48602;45.192;5.722;2022-07-06T11:37:02;99550.09;;;26.24;39.58
62548;BME280;48602;45.192;5.722;2022-07-06T11:39:29;99559.50;;;26.29;39.15
62548;BME280;48602;45.192;5.722;2022-07-06T11:41:56;99581.06;;;26.39;39.31
62548;BME280;48602;45.192;5.722;2022-07-06T11:44:21;99536.50;;;26.43;39.45
62548;BME280;48602;45.192;5.722;2022-07-06T11:46:47;99565.59;;;26.49;38.93
62548;BME280;48602;45.192;5.722;2022-07-06T11:49:13;99526.91;;;26.49;39.08
62548;BME280;48602;45.192;5.722;2022-07-06T11:51:41;99534.56;;;26.53;38.85
62548;BME280;48602;45.192;5.722;2022-07-06T11:54:17;99553.88;;;26.58;38.57
62548;BME280;48602;45.192;5.722;2022-07-06T11:56:46;99515.72;;;26.61;38.96
62548;BME280;48602;45.192;5.722;2022-07-06T11:59:14;99515.63;;;26.71;38.34
62548;BME280;48602;45.192;5.722;2022-07-06T12:01:40;99500.19;;;26.81;38.17
62548;BME280;48602;45.192;5.722;2022-07-06T12:04:09;99511.78;;;26.91;37.95
62548;BME280;48602;45.192;5.722;2022-07-06T12:06:35;99518.03;;;26.92;37.62
62548;BME280;48602;45.192;5.722;2022-07-06T12:09:01;99511.78;;;26.91;38.26
62548;BME280;48602;45.192;5.722;2022-07-06T12:11:36;99507.22;;;26.92;37.52
62548;BME280;48602;45.192;5.722;2022-07-06T12:14:16;99502.38;;;26.95;37.76
62548;BME280;48602;45.192;5.722;2022-07-06T12:16:42;99494.47;;;27.02;37.34
62548;BME280;48602;45.192;5.722;2022-07-06T12:19:08;99499.25;;;27.08;37.55
62548;BME280;48602;45.192;5.722;2022-07-06T12:21:34;99498.78;;;27.13;37.51
62548;BME280;48602;45.192;5.722;2022-07-06T12:24:00;99500.81;;;27.10;37.77
62548;BME280;48602;45.192;5.722;2022-07-06T12:26:27;99485.88;;;27.06;38.15
62548;BME280;48602;45.192;5.722;2022-07-06T12:29:04;99473.66;;;27.02;37.51
62548;BME280;48602;45.192;5.722;2022-07-06T12:31:40;99494.47;;;27.02;38.07
62548;BME280;48602;45.192;5.722;2022-07-06T12:34:20;99496.84;;;27.05;37.67
62548;BME280;48602;45.192;5.722;2022-07-06T12:39:19;99477.06;;;27.04;38.14
62548;BME280;48602;45.192;5.722;2022-07-06T12:41:49;99479.63;;;27.06;38.03
62548;BME280;48602;45.192;5.722;2022-07-06T12:44:23;99500.81;;;27.10;38.18
62548;BME280;48602;45.192;5.722;2022-07-06T12:47:09;99481.00;;;27.10;37.75
62548;BME280;48602;45.192;5.722;2022-07-06T12:49:36;99479.31;;;27.09;37.72
62548;BME280;48602;45.192;5.722;2022-07-06T12:52:08;99508.63;;;27.14;38.20
62548;BME280;48602;45.192;5.722;2022-07-06T12:57:11;99469.91;;;27.21;37.73
62548;BME280;48602;45.192;5.722;2022-07-06T13:00:06;99470.81;;;27.30;37.63
62548;BME280;48602;45.192;5.722;2022-07-06T13:02:33;99470.66;;;27.31;37.74
62548;BME280;48602;45.192;5.722;2022-07-06T13:05:06;99476.75;;;27.33;37.89
62548;BME280;48602;45.192;5.722;2022-07-06T13:07:33;99491.13;;;27.34;38.07
62548;BME280;48602;45.192;5.722;2022-07-06T13:10:02;99469.00;;;27.38;37.22
62548;BME280;48602;45.192;5.722;2022-07-06T13:12:28;99476.28;;;27.38;37.81
62548;BME280;48602;45.192;5.722;2022-07-06T13:14:53;99473.41;;;27.39;37.36